Time;durP1;ratioP1;P1;durP2;ratioP2;P2;SDS_P1;SDS_P2;PMS_P1;PMS_P2;Temp;Humidity;BMP_temperature;BMP_pressure;BME280_temperature;BME280_humidity;BME280_pressure;Samples;Min_cycle;Max_cycle;Signal;HPM_P1;HPM_P2
2022/12/31 00:01:18;;;;;;;26.82;18.65;;;;;;;5.53;90.11;101533.33;1608173;86;21057;-89
2022/12/31 00:03:44;;;;;;;28.83;18.82;;;;;;;5.50;90.30;101533.41;1615263;87;21816;-90
2022/12/31 00:06:23;;;;;;;26.85;18.73;;;;;;;5.48;90.53;101533.89;1628845;87;21068;-90
2022/12/31 00:08:50;;;;;;;29.70;19.32;;;;;;;5.46;90.58;101540.03;1629892;86;21049;-89
2022/12/31 00:11:16;;;;;;;27.07;19.55;;;;;;;5.46;90.56;101536.13;1615301;87;21034;-89
2022/12/31 00:13:44;;;;;;;27.75;20.05;;;;;;;5.44;90.45;101534.01;1615843;87;21129;-90
2022/12/31 00:16:19;;;;;;;27.50;18.67;;;;;;;5.40;90.21;101530.19;1623686;86;21198;-90
2022/12/31 00:18:48;;;;;;;28.65;20.43;;;;;;;5.37;90.18;101528.09;1608549;87;20962;-90
2022/12/31 00:21:17;;;;;;;26.20;18.95;;;;;;;5.31;90.20;101536.88;1618991;87;21002;-90
2022/12/31 00:23:44;;;;;;;25.95;18.85;;;;;;;5.29;90.41;101552.12;1607557;88;21137;-90
2022/12/31 00:26:18;;;;;;;28.32;17.50;;;;;;;5.27;90.41;101557.80;1602477;88;21025;-89
2022/12/31 00:28:45;;;;;;;29.20;20.37;;;;;;;5.29;90.58;101553.41;1607926;85;21026;-88
2022/12/31 00:31:18;;;;;;;27.25;17.57;;;;;;;5.30;90.70;101543.44;1614591;86;21483;-89
2022/12/31 00:33:45;;;;;;;35.20;23.07;;;;;;;5.30;90.68;101537.78;1620199;86;20875;-90
2022/12/31 00:36:18;;;;;;;33.92;22.70;;;;;;;5.30;90.38;101544.73;1618823;86;21528;-91
2022/12/31 00:38:46;;;;;;;30.30;20.08;;;;;;;5.29;90.23;101539.11;1609766;86;21053;-89
2022/12/31 00:41:13;;;;;;;29.05;19.98;;;;;;;5.26;89.95;101540.50;1611295;87;21271;-89
2022/12/31 00:43:40;;;;;;;31.93;20.37;;;;;;;5.22;89.83;101534.50;1625441;86;21010;-88
2022/12/31 00:46:07;;;;;;;26.27;19.57;;;;;;;5.18;89.85;101531.13;1615808;87;20940;-91
2022/12/31 00:48:34;;;;;;;29.80;20.30;;;;;;;5.14;89.94;101531.24;1631419;87;21167;-90
2022/12/31 00:51:02;;;;;;;30.30;19.90;;;;;;;5.11;90.13;101540.39;1624947;87;20895;-89
2022/12/31 00:53:28;;;;;;;30.08;19.02;;;;;;;5.07;90.25;101536.14;1609631;86;21140;-90
2022/12/31 00:56:05;;;;;;;24.57;18.17;;;;;;;5.04;90.36;101539.67;1603865;86;20926;-90
2022/12/31 00:58:33;;;;;;;26.07;20.23;;;;;;;5.03;90.31;101544.92;1617205;86;21148;-89
2022/12/31 01:01:15;;;;;;;29.42;18.02;;;;;;;4.98;90.26;101554.98;1617655;86;21038;-89
2022/12/31 01:03:44;;;;;;;28.65;19.57;;;;;;;4.96;90.10;101551.55;1613899;87;21080;-90
2022/12/31 01:06:10;;;;;;;26.75;21.15;;;;;;;4.93;89.96;101550.75;1616818;86;21171;-89
2022/12/31 01:08:37;;;;;;;26.90;19.35;;;;;;;4.88;89.91;101550.00;1616888;87;20994;-88
2022/12/31 01:11:21;;;;;;;31.05;20.17;;;;;;;4.84;89.91;101543.16;1617792;86;21020;-86
2022/12/31 01:13:54;;;;;;;26.73;19.33;;;;;;;4.81;89.80;101543.23;1615938;87;20971;-87
2022/12/31 01:16:24;;;;;;;28.13;20.20;;;;;;;4.76;89.62;101545.93;1613590;87;21021;-87
2022/12/31 01:18:50;;;;;;;28.38;20.12;;;;;;;4.70;89.67;101540.85;1634315;85;21171;-88
2022/12/31 01:21:17;;;;;;;26.27;18.60;;;;;;;4.64;89.79;101536.62;1615221;87;21026;-85
2022/12/31 01:23:44;;;;;;;25.57;20.20;;;;;;;4.60;89.89;101538.02;1617857;86;20918;-88
2022/12/31 01:26:13;;;;;;;33.67;20.45;;;;;;;4.57;90.04;101542.84;1619224;87;21037;-89
2022/12/31 01:28:39;;;;;;;29.75;17.95;;;;;;;4.55;90.29;101542.86;1622915;87;20966;-87
2022/12/31 01:31:12;;;;;;;29.82;19.75;;;;;;;4.54;90.43;101545.51;1627962;84;21209;-88
2022/12/31 01:33:39;;;;;;;34.88;21.95;;;;;;;4.51;90.61;101537.34;1618415;86;20999;-86
2022/12/31 01:36:09;;;;;;;30.20;20.70;;;;;;;4.50;90.58;101539.95;1620755;87;20939;-88
2022/12/31 01:38:36;;;;;;;27.87;20.20;;;;;;;4.46;90.55;101543.05;1628946;86;20931;-86
2022/12/31 01:41:03;;;;;;;29.00;19.55;;;;;;;4.42;90.43;101550.48;1621640;86;20958;-88
2022/12/31 01:43:49;;;;;;;25.92;19.23;;;;;;;4.39;90.50;101563.98;1611060;86;21780;-89
2022/12/31 01:49:44;;;;;;;26.68;18.80;;;;;;;4.39;90.94;101563.98;1817094;79;22550;-89
2022/12/31 01:52:18;;;;;;;26.45;19.65;;;;;;;4.33;91.05;101564.94;1789923;80;20876;-90
2022/12/31 01:54:50;;;;;;;30.57;19.10;;;;;;;4.32;91.06;101567.98;1790185;80;21275;-89
2022/12/31 01:57:20;;;;;;;28.62;21.05;;;;;;;4.30;90.99;101573.65;1789939;80;20848;-89
2022/12/31 01:59:46;;;;;;;32.48;21.25;;;;;;;4.28;90.93;101574.57;1759879;80;20904;-88
2022/12/31 02:02:13;;;;;;;38.02;25.55;;;;;;;4.27;91.02;101588.42;1789946;80;20971;-90
2022/12/31 02:04:43;;;;;;;28.60;20.68;;;;;;;4.25;91.15;101587.17;1759875;80;21380;-89
2022/12/31 02:07:11;;;;;;;36.38;24.07;;;;;;;4.27;91.31;101589.30;1789893;80;21771;-91
2022/12/31 02:09:39;;;;;;;35.25;22.70;;;;;;;4.30;91.47;101592.27;1789831;80;20880;-90
2022/12/31 02:12:07;;;;;;;28.85;20.72;;;;;;;4.33;91.42;101588.31;1759544;80;21385;-89
2022/12/31 02:14:44;;;;;;;31.82;21.45;;;;;;;4.35;91.23;101587.84;1790466;80;21000;-87
2022/12/31 02:17:28;;;;;;;32.30;20.40;;;;;;;4.35;90.88;101588.69;1760291;80;20895;-89
2022/12/31 02:20:15;;;;;;;33.05;20.43;;;;;;;4.34;90.51;101592.64;1793119;79;21076;-87
2022/12/31 02:23:10;;;;;;;34.60;21.12;;;;;;;4.31;90.27;101595.27;1793142;80;20889;-86
2022/12/31 02:25:52;;;;;;;29.90;20.88;;;;;;;4.25;90.15;101594.11;1792926;77;20991;-89
2022/12/31 02:29:07;;;;;;;30.68;20.00;;;;;;;4.20;90.10;101601.95;1713914;80;21443;-89
2022/12/31 02:31:37;;;;;;;33.60;21.85;;;;;;;4.17;90.28;101594.68;1711068;83;21009;-90
2022/12/31 02:34:21;;;;;;;35.15;21.35;;;;;;;4.15;90.41;101601.19;1711004;82;21266;-88
2022/12/31 02:36:48;;;;;;;37.97;25.73;;;;;;;4.14;90.29;101598.19;1711219;82;20941;-88
2022/12/31 02:39:16;;;;;;;35.92;22.50;;;;;;;4.13;90.07;101597.76;1711082;82;21741;-89
2022/12/31 02:41:51;;;;;;;33.35;21.80;;;;;;;4.11;89.86;101603.00;1710879;83;21394;-89
2022/12/31 02:44:23;;;;;;;38.55;22.30;;;;;;;4.07;89.55;101601.75;1711246;82;20946;-90
2022/12/31 02:47:25;;;;;;;35.00;21.48;;;;;;;4.02;89.44;101615.25;1710699;82;21145;-90
2022/12/31 02:50:21;;;;;;;32.40;20.45;;;;;;;3.97;89.49;101615.78;1710781;82;20898;-89
2022/12/31 02:53:11;;;;;;;34.40;21.65;;;;;;;3.92;89.67;101610.67;1710756;83;20922;-90
2022/12/31 02:56:16;;;;;;;31.65;19.67;;;;;;;3.91;89.90;101616.72;1709009;83;20982;-91
2022/12/31 03:02:14;;;;;;;28.20;21.37;;;;;;;3.95;90.15;101598.93;1710151;82;21663;-89
2022/12/31 03:04:47;;;;;;;33.15;21.02;;;;;;;4.04;90.27;101617.39;1712254;80;21429;-86
2022/12/31 03:07:22;;;;;;;33.35;22.58;;;;;;;4.09;89.94;101615.56;1789971;80;20928;-85
2022/12/31 03:09:49;;;;;;;27.32;19.77;;;;;;;4.12;89.62;101633.25;1788350;80;20947;-86
2022/12/31 03:15:00;;;;;;;;;;;;;;;4.13;88.85;101649.67;1793129;80;21252;-84
2022/12/31 03:17:27;;;;;;;32.53;20.70;;;;;;;4.11;88.59;101656.21;1790335;80;20084;-89
2022/12/31 03:22:41;;;;;;;28.90;20.12;;;;;;;4.06;88.32;101667.53;1789827;80;20904;-87
2022/12/31 03:28:01;;;;;;;33.53;20.48;;;;;;;3.99;88.26;101662.88;1789126;80;21263;-88
2022/12/31 03:30:28;;;;;;;32.75;21.60;;;;;;;3.96;88.30;101660.34;1789220;80;20982;-87
2022/12/31 03:32:58;;;;;;;28.15;20.82;;;;;;;3.95;88.07;101652.12;1789431;80;20986;-87
2022/12/31 03:35:25;;;;;;;32.93;22.20;;;;;;;3.93;87.95;101657.78;1789975;80;21416;-87
2022/12/31 03:37:52;;;;;;;36.65;23.12;;;;;;;3.91;87.69;101651.76;1789775;80;20959;-89
2022/12/31 03:40:21;;;;;;;30.32;20.82;;;;;;;3.88;87.45;101656.56;1789063;80;21157;-88
2022/12/31 03:42:48;;;;;;;29.95;21.30;;;;;;;3.84;87.39;101653.59;1758738;80;20908;-90
2022/12/31 03:45:15;;;;;;;32.23;21.62;;;;;;;3.80;87.45;101653.24;1789170;80;20900;-89
2022/12/31 03:47:41;;;;;;;38.23;23.60;;;;;;;3.77;87.55;101648.08;1788305;80;20974;-88
2022/12/31 03:50:09;;;;;;;41.35;25.45;;;;;;;3.72;87.55;101644.27;1775992;80;21409;-91
2022/12/31 03:52:37;;;;;;;45.78;30.12;;;;;;;3.70;87.42;101640.83;1776519;80;21275;-88
2022/12/31 03:55:05;;;;;;;42.38;26.30;;;;;;;3.68;87.33;101640.45;1775956;80;20936;-90
2022/12/31 03:57:31;;;;;;;47.90;27.70;;;;;;;3.65;87.33;101643.95;1776776;80;20853;-89
2022/12/31 03:59:58;;;;;;;44.27;27.67;;;;;;;3.65;87.30;101650.87;1776186;80;20900;-89
2022/12/31 04:02:25;;;;;;;40.83;24.67;;;;;;;3.64;87.37;101656.48;1776980;80;20932;-89
2022/12/31 04:04:51;;;;;;;38.28;25.02;;;;;;;3.66;87.35;101674.63;1776463;80;21133;-90
2022/12/31 04:07:18;;;;;;;34.33;22.75;;;;;;;3.69;87.60;101678.45;1775922;80;21065;-88
2022/12/31 04:09:45;;;;;;;42.75;27.10;;;;;;;3.76;87.74;101692.20;1775466;80;20980;-89
2022/12/31 04:12:11;;;;;;;40.05;25.30;;;;;;;3.82;87.60;101705.09;1775575;80;20889;-90
2022/12/31 04:14:40;;;;;;;43.08;24.45;;;;;;;3.85;87.47;101705.91;1775688;80;21028;-89
2022/12/31 04:17:06;;;;;;;35.80;23.90;;;;;;;3.86;87.05;101702.42;1775530;80;21149;-89
2022/12/31 04:19:33;;;;;;;35.30;23.57;;;;;;;3.83;86.65;101699.89;1775681;80;20987;-89
2022/12/31 04:22:00;;;;;;;33.25;22.50;;;;;;;3.79;86.40;101710.33;1775849;80;20881;-88
2022/12/31 04:24:28;;;;;;;36.17;23.70;;;;;;;3.73;86.31;101708.25;1775838;80;20973;-90
2022/12/31 04:26:55;;;;;;;45.25;27.82;;;;;;;3.69;86.29;101716.95;1775993;80;20991;-90
2022/12/31 04:29:21;;;;;;;42.00;25.80;;;;;;;3.65;86.41;101718.31;1775675;80;21237;-89
2022/12/31 04:31:48;;;;;;;49.20;25.65;;;;;;;3.61;86.56;101720.08;1775567;80;21376;-89
2022/12/31 04:34:15;;;;;;;35.78;24.02;;;;;;;3.59;86.73;101723.12;1775705;80;20909;-89
2022/12/31 04:36:41;;;;;;;35.17;21.95;;;;;;;3.59;86.90;101724.42;1775800;80;20991;-89
2022/12/31 04:39:08;;;;;;;36.77;26.10;;;;;;;3.59;86.98;101720.98;1775774;80;21066;-89
2022/12/31 04:41:35;;;;;;;36.38;23.02;;;;;;;3.60;86.97;101720.09;1775656;80;21179;-89
2022/12/31 04:44:03;;;;;;;36.93;24.02;;;;;;;3.61;86.83;101729.16;1775429;80;20869;-91
2022/12/31 04:46:32;;;;;;;39.23;26.65;;;;;;;3.60;86.63;101735.66;1775804;80;20861;-90
2022/12/31 04:48:59;;;;;;;43.75;26.48;;;;;;;3.58;86.40;101725.32;1776920;79;20959;-88
2022/12/31 04:51:27;;;;;;;41.13;26.30;;;;;;;3.56;86.34;101730.96;1778254;79;21159;-88
2022/12/31 04:53:53;;;;;;;41.25;27.02;;;;;;;3.53;86.42;101730.98;1778238;80;21059;-88
2022/12/31 04:56:20;;;;;;;38.15;24.72;;;;;;;3.51;86.44;101732.73;1778277;80;20892;-87
2022/12/31 04:58:47;;;;;;;45.60;26.10;;;;;;;3.50;86.55;101732.33;1777197;80;20928;-88
2022/12/31 05:01:13;;;;;;;42.53;27.13;;;;;;;3.49;86.69;101734.48;1775849;80;21015;-89
2022/12/31 05:03:41;;;;;;;45.28;27.60;;;;;;;3.49;86.73;101744.45;1775591;80;20884;-91
2022/12/31 05:06:11;;;;;;;43.40;27.48;;;;;;;3.50;86.69;101745.30;1775629;80;21212;-90
2022/12/31 05:08:39;;;;;;;38.95;24.95;;;;;;;3.52;86.53;101755.22;1775500;80;21549;-91
2022/12/31 05:11:05;;;;;;;41.53;26.62;;;;;;;3.51;86.33;101756.95;1775628;80;20932;-88
2022/12/31 05:13:32;;;;;;;44.93;26.27;;;;;;;3.48;85.89;101754.83;1775470;80;20901;-88
2022/12/31 05:15:59;;;;;;;41.58;24.95;;;;;;;3.44;86.00;101764.37;1775785;80;20920;-91
2022/12/31 05:18:26;;;;;;;42.95;25.00;;;;;;;3.43;86.40;101776.92;1775381;80;21221;-91
2022/12/31 05:20:52;;;;;;;46.53;26.42;;;;;;;3.42;86.30;101775.64;1775369;80;20931;-91
2022/12/31 05:23:19;;;;;;;39.35;25.90;;;;;;;3.40;86.35;101782.58;1753807;80;20897;-88
2022/12/31 05:25:48;;;;;;;41.20;26.10;;;;;;;3.41;86.74;101782.56;1775541;80;21355;-90
2022/12/31 05:28:15;;;;;;;44.67;27.70;;;;;;;3.43;86.78;101784.70;1775610;80;20951;-90
2022/12/31 05:30:42;;;;;;;36.08;24.70;;;;;;;3.45;86.60;101796.37;1775743;80;21183;-89
2022/12/31 05:33:09;;;;;;;39.18;26.45;;;;;;;3.44;86.35;101798.08;1775656;80;21354;-90
2022/12/31 05:35:36;;;;;;;44.00;26.37;;;;;;;3.44;86.20;101799.37;1775873;80;20963;-90
2022/12/31 05:38:02;;;;;;;42.38;26.40;;;;;;;3.43;86.30;101795.08;1776070;80;20928;-89
2022/12/31 05:40:37;;;;;;;43.80;27.07;;;;;;;3.43;86.41;101796.37;1776546;80;20876;-91
2022/12/31 05:43:03;;;;;;;43.02;26.57;;;;;;;3.43;86.57;101802.00;1775856;80;21167;-90
2022/12/31 05:45:30;;;;;;;45.17;28.50;;;;;;;3.46;86.67;101807.14;1775712;80;20853;-89
2022/12/31 05:47:56;;;;;;;40.35;27.65;;;;;;;3.46;86.46;101801.52;1775765;80;20987;-89
2022/12/31 05:50:23;;;;;;;40.58;26.95;;;;;;;3.46;86.23;101814.48;1747397;80;21028;-90
2022/12/31 05:52:51;;;;;;;39.78;28.92;;;;;;;3.45;86.34;101811.92;1743906;82;20853;-90
2022/12/31 05:55:18;;;;;;;44.03;26.23;;;;;;;3.46;86.42;101813.18;1744161;81;21275;-90
2022/12/31 05:57:44;;;;;;;41.60;24.75;;;;;;;3.47;87.23;101812.77;1744307;82;20995;-90
2022/12/31 06:00:12;;;;;;;35.73;25.15;;;;;;;3.48;86.93;101817.06;1746599;82;20944;-91
2022/12/31 06:02:42;;;;;;;37.88;26.20;;;;;;;3.46;86.64;101818.81;1746537;80;20971;-89
2022/12/31 06:05:09;;;;;;;45.60;26.77;;;;;;;3.45;86.56;101819.27;1746626;80;20995;-90
2022/12/31 06:07:36;;;;;;;41.63;27.65;;;;;;;3.46;86.68;101810.59;1716939;80;21111;-91
2022/12/31 06:10:05;;;;;;;50.17;30.85;;;;;;;3.50;86.76;101807.53;1717349;81;20952;-89
2022/12/31 06:12:32;;;;;;;54.13;35.25;;;;;;;3.52;86.73;101811.83;1746961;82;20885;-91
2022/12/31 06:14:59;;;;;;;39.73;27.60;;;;;;;3.51;86.46;101814.02;1747037;82;21047;-90
2022/12/31 06:17:28;;;;;;;36.10;25.92;;;;;;;3.48;86.18;101815.32;1747346;80;20944;-91
2022/12/31 06:19:55;;;;;;;40.70;25.70;;;;;;;3.42;86.04;101815.38;1746804;80;21129;-91
2022/12/31 06:22:21;;;;;;;41.98;26.65;;;;;;;3.36;86.23;101819.78;1747049;80;20802;-91
2022/12/31 06:24:49;;;;;;;34.13;25.50;;;;;;;3.30;86.43;101816.83;1747139;80;20975;-90
2022/12/31 06:27:15;;;;;;;51.73;33.18;;;;;;;3.29;86.68;101826.34;1746505;80;20975;-90
2022/12/31 06:29:43;;;;;;;44.30;31.42;;;;;;;3.31;87.02;101823.30;1744637;82;21346;-90
2022/12/31 06:32:11;;;;;;;44.23;30.35;;;;;;;3.37;86.95;101846.99;1744431;82;21254;-90
2022/12/31 06:34:42;;;;;;;46.70;31.45;;;;;;;3.43;86.86;101852.12;1744298;82;20925;-89
2022/12/31 06:37:09;;;;;;;46.48;29.45;;;;;;;3.48;86.61;101853.38;1744243;81;20932;-89
2022/12/31 06:39:37;;;;;;;42.25;26.97;;;;;;;3.49;86.22;101863.73;1744287;82;20913;-90
2022/12/31 06:42:05;;;;;;;39.67;27.05;;;;;;;3.51;85.91;101861.10;1744436;82;21533;-92
2022/12/31 06:44:31;;;;;;;41.33;25.57;;;;;;;3.54;85.79;101866.28;1744974;81;20908;-90
2022/12/31 06:46:58;;;;;;;44.67;29.25;;;;;;;3.56;85.74;101868.42;1745279;82;20909;-90
2022/12/31 06:49:25;;;;;;;46.40;28.35;;;;;;;3.58;85.67;101867.97;1745192;82;20999;-89
2022/12/31 06:51:52;;;;;;;43.08;28.40;;;;;;;3.59;85.56;101872.71;1744852;81;20940;-88
2022/12/31 06:54:19;;;;;;;41.20;28.52;;;;;;;3.59;85.50;101877.45;1745321;82;20861;-91
2022/12/31 06:56:46;;;;;;;43.48;28.15;;;;;;;3.59;85.32;101874.01;1782051;80;21917;-90
2022/12/31 06:59:27;;;;;;;47.17;31.60;;;;;;;3.56;85.09;101880.50;1781943;80;21006;-90
2022/12/31 07:02:20;;;;;;;45.10;29.07;;;;;;;3.50;85.00;101875.81;1781618;80;20928;-89
2022/12/31 07:05:13;;;;;;;37.23;25.50;;;;;;;3.46;84.86;101881.05;1781877;80;21096;-91
2022/12/31 07:07:51;;;;;;;35.08;23.50;;;;;;;3.44;85.03;101883.65;1782174;80;21062;-92
2022/12/31 07:10:44;;;;;;;32.80;22.42;;;;;;;3.43;85.34;101885.83;1781884;80;21157;-91
2022/12/31 07:13:31;;;;;;;26.62;20.30;;;;;;;3.48;85.59;101887.08;1782114;80;20881;-88
2022/12/31 07:16:23;;;;;;;37.58;23.52;;;;;;;3.53;85.73;101891.36;1781928;80;20930;-90
2022/12/31 07:19:13;;;;;;;34.30;23.05;;;;;;;3.61;85.75;101905.98;1770765;80;21034;-91
2022/12/31 07:21:41;;;;;;;36.03;22.50;;;;;;;3.71;85.72;101909.76;1781380;80;20923;-90
2022/12/31 07:24:09;;;;;;;33.88;22.95;;;;;;;3.79;85.49;101903.17;1782648;80;21182;-88
2022/12/31 07:26:41;;;;;;;35.55;21.42;;;;;;;3.83;85.20;101907.46;1782732;80;21340;-91
2022/12/31 07:29:19;;;;;;;44.45;24.05;;;;;;;3.87;85.05;101912.19;1782106;80;20884;-91
2022/12/31 07:32:04;;;;;;;35.92;23.55;;;;;;;3.88;85.00;101914.75;1782565;80;20936;-88
2022/12/31 07:34:58;;;;;;;34.85;23.87;;;;;;;3.91;85.06;101917.33;1783041;80;20880;-92
2022/12/31 07:38:11;;;;;;;40.45;26.10;;;;;;;3.99;85.19;101925.45;1782579;80;21419;-89
2022/12/31 07:41:02;;;;;;;42.75;27.75;;;;;;;4.08;85.07;101929.23;1783153;80;21405;-90
2022/12/31 07:44:14;;;;;;;42.20;27.48;;;;;;;4.13;84.80;101924.39;1783288;80;20923;-88
2022/12/31 07:46:54;;;;;;;39.75;26.12;;;;;;;4.18;84.42;101931.27;1705113;83;21339;-89
2022/12/31 07:49:21;;;;;;;42.03;26.02;;;;;;;4.18;84.26;101934.75;1667688;85;20977;-91
2022/12/31 07:51:50;;;;;;;42.80;25.95;;;;;;;4.20;84.18;101943.35;1701900;84;21403;-88
2022/12/31 07:54:17;;;;;;;39.65;24.02;;;;;;;4.22;84.04;101952.42;1665650;86;21542;-90
2022/12/31 07:56:45;;;;;;;41.42;25.72;;;;;;;4.22;83.90;101948.09;1701836;84;21587;-91
2022/12/31 07:59:35;;;;;;;46.20;25.62;;;;;;;4.24;83.98;101950.23;1665324;86;20898;-89
2022/12/31 08:02:42;;;;;;;39.33;25.02;;;;;;;4.24;83.86;101959.31;1702270;84;21032;-89
2022/12/31 08:05:27;;;;;;;50.08;27.60;;;;;;;4.21;83.93;101965.86;1665451;86;21192;-90
2022/12/31 08:08:14;;;;;;;56.20;29.45;;;;;;;4.25;84.08;101964.95;1648348;87;20992;-88
2022/12/31 08:11:22;;;;;;;42.45;27.02;;;;;;;4.25;83.63;101964.95;1685901;83;20917;-89
2022/12/31 08:13:51;;;;;;;49.40;26.75;;;;;;;4.27;83.72;101967.50;1649073;86;20957;-90
2022/12/31 08:16:19;;;;;;;35.90;23.25;;;;;;;4.27;83.67;101958.00;1684361;85;20880;-89
2022/12/31 08:18:46;;;;;;;30.70;21.97;;;;;;;4.29;83.87;101957.55;1660110;85;21570;-90
2022/12/31 08:21:49;;;;;;;36.13;23.22;;;;;;;4.34;84.13;101964.83;1681187;84;21046;-90
2022/12/31 08:24:30;;;;;;;39.45;24.85;;;;;;;4.43;84.19;101959.96;1664656;86;20990;-89
2022/12/31 08:27:27;;;;;;;38.65;23.85;;;;;;;4.52;84.21;101963.73;1692553;84;21011;-88
2022/12/31 08:30:08;;;;;;;35.40;22.98;;;;;;;4.59;84.07;101963.66;1692364;84;20972;-89
2022/12/31 08:32:46;;;;;;;40.60;24.98;;;;;;;4.70;84.04;101960.47;1692781;84;21438;-87
2022/12/31 08:35:54;;;;;;;34.15;23.50;;;;;;;4.78;83.71;101962.53;1634866;84;20956;-87
2022/12/31 08:38:46;;;;;;;41.05;23.15;;;;;;;4.83;83.38;101962.02;1692528;84;20895;-87
2022/12/31 08:41:34;;;;;;;36.13;23.27;;;;;;;4.90;83.06;101957.59;1664666;86;21111;-85
2022/12/31 08:44:33;;;;;;;32.70;23.75;;;;;;;4.94;83.03;101951.47;1695074;83;21414;-89
2022/12/31 08:47:09;;;;;;;33.45;22.87;;;;;;;5.05;82.89;101959.95;1784611;80;21091;-87
2022/12/31 08:49:37;;;;;;;32.80;23.47;;;;;;;5.12;83.04;101962.88;1782154;80;21490;-88
2022/12/31 08:52:14;;;;;;;37.80;22.93;;;;;;;5.20;82.95;101960.14;1775618;80;20938;-87
2022/12/31 08:54:41;;;;;;;42.80;27.02;;;;;;;5.29;82.67;101951.33;1775191;80;20939;-88
2022/12/31 08:57:37;;;;;;;35.10;24.63;;;;;;;5.32;82.50;101953.45;1776013;80;20896;-92
2022/12/31 09:00:14;;;;;;;39.88;25.20;;;;;;;5.35;82.08;101955.13;1775793;80;21927;-90
2022/12/31 09:03:01;;;;;;;33.63;23.87;;;;;;;5.35;81.94;101952.53;1776164;80;21066;-89
2022/12/31 09:06:01;;;;;;;35.48;23.40;;;;;;;5.37;81.85;101961.17;1777179;79;20889;-89
2022/12/31 09:08:52;;;;;;;38.13;23.05;;;;;;;5.40;81.88;101957.20;1775908;80;21417;-89
2022/12/31 09:12:12;;;;;;;43.40;25.62;;;;;;;5.45;82.00;101946.72;1777555;80;20940;-90
2022/12/31 09:14:52;;;;;;;36.05;25.40;;;;;;;5.51;82.00;101936.22;1776011;80;21410;-90
2022/12/31 09:17:53;;;;;;;39.78;26.23;;;;;;;5.59;81.91;101941.70;1776677;79;20889;-90
2022/12/31 09:20:29;;;;;;;42.20;28.25;;;;;;;5.64;81.62;101939.02;1777240;80;21441;-88
2022/12/31 09:22:56;;;;;;;42.25;28.55;;;;;;;5.68;81.27;101932.02;1775782;80;21190;-90
2022/12/31 09:25:24;;;;;;;44.00;31.05;;;;;;;5.68;81.11;101929.42;1776365;80;20931;-88
2022/12/31 09:28:12;;;;;;;46.00;31.95;;;;;;;5.69;80.98;101928.09;1776207;80;20912;-88
2022/12/31 09:30:54;;;;;;;39.85;29.40;;;;;;;5.69;81.14;101926.80;1776404;80;20888;-89
2022/12/31 09:33:55;;;;;;;40.38;26.85;;;;;;;5.68;81.46;101925.06;1776331;80;21015;-90
2022/12/31 09:36:30;;;;;;;38.67;28.65;;;;;;;5.72;81.76;101922.82;1776303;80;21402;-90
2022/12/31 09:39:15;;;;;;;;;;;;;;;5.76;81.95;101920.58;1776986;80;20951;-88
2022/12/31 09:42:02;;;;;;;49.23;29.37;;;;;;;5.82;81.98;101918.29;1778618;80;21244;-88
2022/12/31 09:45:05;;;;;;;46.45;29.75;;;;;;;5.87;81.91;101919.50;1777351;80;20924;-89
2022/12/31 09:47:59;;;;;;;52.05;35.85;;;;;;;5.92;81.75;101918.53;1777090;80;20935;-89
2022/12/31 09:50:40;;;;;;;49.95;32.90;;;;;;;5.95;81.76;101914.59;1778203;80;20944;-90
2022/12/31 09:53:19;;;;;;;50.20;31.17;;;;;;;5.98;81.59;101919.76;1778777;79;20959;-88
2022/12/31 09:56:05;;;;;;;49.65;30.80;;;;;;;6.01;81.49;101915.78;1778102;80;21105;-88
2022/12/31 09:58:43;;;;;;;51.92;33.10;;;;;;;6.02;81.73;101915.33;1777073;78;20881;-88
2022/12/31 10:01:24;;;;;;;64.65;36.53;;;;;;;6.05;81.71;101915.28;1739965;80;20865;-87
2022/12/31 10:04:11;;;;;;;67.75;42.27;;;;;;;6.09;81.74;101913.45;1776461;80;20893;-90
2022/12/31 10:06:56;;;;;;;77.37;47.88;;;;;;;6.14;81.78;101910.34;1775569;80;20920;-87
2022/12/31 10:09:54;;;;;;;93.62;52.80;;;;;;;6.20;81.54;101918.00;1778388;80;21971;-87
2022/12/31 10:13:03;;;;;;;91.42;50.83;;;;;;;6.25;81.37;101920.50;1778341;80;20892;-87
2022/12/31 10:15:41;;;;;;;88.80;50.28;;;;;;;6.29;81.19;101928.25;1708754;84;20885;-91
2022/12/31 10:18:40;;;;;;;75.52;47.45;;;;;;;6.33;80.86;101925.12;1706688;84;20999;-91
2022/12/31 10:21:21;;;;;;;77.72;47.48;;;;;;;6.38;80.84;101921.95;1706522;84;21027;-90
2022/12/31 10:24:12;;;;;;;79.22;44.42;;;;;;;6.41;80.83;101930.58;1670284;85;21250;-89
2022/12/31 10:27:08;;;;;;;79.30;43.35;;;;;;;6.47;80.82;101930.02;1706621;84;20861;-90
2022/12/31 10:29:55;;;;;;;73.45;42.58;;;;;;;6.52;80.69;101922.98;1706911;84;20956;-91
2022/12/31 10:32:52;;;;;;;78.78;45.95;;;;;;;6.56;80.69;101916.36;1670200;86;21169;-89
2022/12/31 10:35:44;;;;;;;74.87;43.95;;;;;;;6.63;80.76;101920.54;1707134;83;20897;-89
2022/12/31 10:38:54;;;;;;;68.55;41.33;;;;;;;6.70;80.50;101916.50;1686779;83;21910;-90
2022/12/31 10:42:00;;;;;;;71.05;41.95;;;;;;;6.75;80.19;101913.33;1670495;86;20978;-86
2022/12/31 10:44:53;;;;;;;66.28;40.05;;;;;;;6.73;79.66;101917.27;1708043;84;21007;-88
2022/12/31 10:47:44;;;;;;;71.28;42.15;;;;;;;6.69;79.29;101910.41;1670727;86;21461;-89
2022/12/31 10:50:40;;;;;;;68.17;41.10;;;;;;;6.63;79.44;101908.81;1706519;84;20976;-89
2022/12/31 10:53:31;;;;;;;66.12;39.75;;;;;;;6.66;79.59;101909.19;1734151;82;21392;-88
2022/12/31 10:56:34;;;;;;;69.42;41.77;;;;;;;6.73;79.67;101912.50;1754123;80;20928;-89
2022/12/31 10:59:41;;;;;;;77.05;43.23;;;;;;;6.78;79.62;101907.61;1785198;80;20940;-89
2022/12/31 11:02:44;;;;;;;74.90;39.90;;;;;;;6.87;79.49;101905.66;1748487;82;20944;-89
2022/12/31 11:05:34;;;;;;;69.42;41.40;;;;;;;6.89;79.12;101911.23;1748265;82;20900;-90
2022/12/31 11:08:15;;;;;;;58.38;36.98;;;;;;;6.92;79.00;101908.58;1747896;82;21149;-89
2022/12/31 11:11:33;;;;;;;55.55;36.93;;;;;;;6.94;78.91;101907.25;1748074;82;21011;-90
2022/12/31 11:14:54;;;;;;;74.10;42.23;;;;;;;6.96;78.82;101911.53;1748809;82;20936;-90
2022/12/31 11:17:47;;;;;;;63.25;39.90;;;;;;;7.00;78.83;101908.37;1748276;82;20927;-90
2022/12/31 11:20:51;;;;;;;77.40;45.58;;;;;;;7.02;78.73;101907.44;1749303;82;20904;-89
2022/12/31 11:23:25;;;;;;;;;;;;;;;7.03;78.98;101909.17;1751897;80;21086;-91
2022/12/31 11:35:55;;;;;;;57.53;38.10;;;;;;;7.24;78.75;101904.31;1478700;95;21015;-87
2022/12/31 11:38:54;;;;;;;58.45;38.48;;;;;;;7.32;78.32;101916.72;1452559;98;21099;-88
2022/12/31 11:41:31;;;;;;;50.73;35.48;;;;;;;7.31;77.83;101913.69;1450589;96;21139;-87
2022/12/31 11:44:30;;;;;;;57.67;37.08;;;;;;;7.29;77.73;101919.39;1429088;99;21097;-86
2022/12/31 11:47:14;;;;;;;52.33;35.70;;;;;;;7.21;77.63;101928.73;1429747;96;20965;-86
2022/12/31 11:50:19;;;;;;;58.25;35.17;;;;;;;7.02;77.93;101924.39;1428234;99;21132;-86
2022/12/31 11:53:23;;;;;;;56.20;37.30;;;;;;;6.78;78.37;101921.95;1427955;99;21181;-88
2022/12/31 11:56:07;;;;;;;54.10;35.68;;;;;;;6.48;79.20;101930.00;1429636;100;21147;-90
2022/12/31 11:58:34;;;;;;;56.30;36.07;;;;;;;6.26;80.05;101932.66;1429017;99;21040;-89
2022/12/31 12:01:15;;;;;;;58.40;38.33;;;;;;;6.12;80.66;101928.59;1428865;99;21052;-90
2022/12/31 12:03:43;;;;;;;65.05;39.75;;;;;;;6.02;80.99;101929.65;1433673;97;21144;-90
2022/12/31 12:06:19;;;;;;;59.20;39.15;;;;;;;5.89;81.48;101932.05;1468730;96;21370;-90
2022/12/31 12:15:08;;;;;;;61.68;37.23;;;;;;;5.92;82.34;101930.25;1725280;82;21381;-91
2022/12/31 12:17:36;;;;;;;57.10;37.10;;;;;;;6.01;82.31;101937.06;1721406;82;20955;-90
2022/12/31 12:20:11;;;;;;;56.33;34.98;;;;;;;6.11;82.09;101939.02;1724693;83;21053;-89
2022/12/31 12:22:50;;;;;;;53.68;32.42;;;;;;;6.13;81.59;101939.41;1724678;83;20939;-91
2022/12/31 12:25:23;;;;;;;55.67;35.17;;;;;;;6.10;81.20;101948.59;1726347;83;20966;-90
2022/12/31 12:27:50;;;;;;;54.45;34.30;;;;;;;5.94;80.66;101945.44;1698825;83;20895;-90
2022/12/31 12:30:24;;;;;;;49.93;31.55;;;;;;;5.74;80.79;101950.14;1726147;83;20964;-90
2022/12/31 12:33:07;;;;;;;52.90;33.78;;;;;;;5.55;81.15;101946.54;1726959;81;20994;-86